Time;durP1;ratioP1;P1;durP2;ratioP2;P2;SDS_P1;SDS_P2;PMS_P1;PMS_P2;Temp;Humidity;BMP_temperature;BMP_pressure;BME280_temperature;BME280_humidity;BME280_pressure;Samples;Min_cycle;Max_cycle;Signal;HPM_P1;HPM_P2
2022/12/10 05:00:19;;;;;;;35.70;31.80;;;2.20;99.90;;;;;;6183277;22;21540;-64
2022/12/10 05:02:49;;;;;;;38.33;34.23;;;2.20;99.90;;;;;;6218734;23;20399;-65
2022/12/10 05:05:16;;;;;;;35.83;31.93;;;2.20;99.90;;;;;;6218801;23;20444;-64
2022/12/10 05:07:42;;;;;;;36.93;32.87;;;2.10;99.90;;;;;;6218190;23;20412;-63
2022/12/10 05:10:09;;;;;;;37.97;32.67;;;2.10;99.90;;;;;;6218386;23;20411;-64
2022/12/10 05:12:36;;;;;;;37.20;33.03;;;2.10;99.90;;;;;;6188205;23;20436;-64
2022/12/10 05:15:05;;;;;;;35.97;32.07;;;2.10;99.90;;;;;;6188290;23;20407;-65
2022/12/10 05:17:33;;;;;;;36.00;31.13;;;2.10;99.90;;;;;;6188566;23;20416;-66
2022/12/10 05:20:00;;;;;;;37.33;33.57;;;2.10;99.90;;;;;;6188088;23;20413;-66
2022/12/10 05:25:11;;;;;;;33.97;30.20;;;2.10;99.90;;;;;;6201805;23;20383;-66
2022/12/10 05:27:38;;;;;;;38.40;34.10;;;2.10;99.90;;;;;;6200941;23;20413;-66
2022/12/10 05:30:06;;;;;;;35.70;31.87;;;2.00;99.90;;;;;;6191541;23;20916;-66
2022/12/10 05:32:34;;;;;;;39.23;34.97;;;2.00;99.90;;;;;;6187790;23;20499;-66
2022/12/10 05:35:00;;;;;;;34.57;30.87;;;2.10;99.90;;;;;;6187323;23;20952;-66
2022/12/10 05:37:28;;;;;;;38.93;33.53;;;2.10;99.90;;;;;;6187583;23;20413;-65
2022/12/10 05:39:56;;;;;;;37.47;30.63;;;2.10;99.90;;;;;;6187763;23;20413;-65
2022/12/10 05:42:22;;;;;;;34.57;30.00;;;2.10;99.90;;;;;;6187716;23;20436;-65
2022/12/10 05:44:49;;;;;;;35.03;31.30;;;2.10;99.90;;;;;;6187907;23;20490;-65
2022/12/10 05:47:16;;;;;;;36.10;32.20;;;2.10;99.90;;;;;;6187221;23;20412;-65
2022/12/10 05:49:44;;;;;;;35.20;31.03;;;2.10;99.90;;;;;;6187655;23;20757;-65
2022/12/10 05:52:10;;;;;;;35.97;32.07;;;2.10;99.90;;;;;;6187446;23;20437;-65
2022/12/10 05:54:37;;;;;;;36.77;32.77;;;2.10;99.90;;;;;;6187827;23;20447;-66
2022/12/10 05:57:04;;;;;;;36.43;31.40;;;2.00;99.90;;;;;;6188795;23;20413;-65
2022/12/10 05:59:30;;;;;;;35.43;31.67;;;2.00;99.90;;;;;;6188988;23;20470;-66
2022/12/10 06:01:57;;;;;;;36.77;32.80;;;2.00;99.90;;;;;;6188767;23;20437;-66
2022/12/10 06:04:24;;;;;;;42.87;34.47;;;2.00;99.90;;;;;;6188881;23;20417;-66
2022/12/10 06:06:52;;;;;;;34.27;30.57;;;1.90;99.90;;;;;;6187999;23;20416;-67
2022/12/10 06:09:18;;;;;;;34.73;30.93;;;2.00;99.90;;;;;;6187833;23;20412;-66
2022/12/10 06:11:45;;;;;;;35.93;32.07;;;2.00;99.90;;;;;;6187578;23;20526;-65
2022/12/10 06:14:12;;;;;;;37.10;33.10;;;1.90;99.90;;;;;;6187122;23;20416;-66
2022/12/10 06:16:40;;;;;;;35.53;31.67;;;1.90;99.90;;;;;;6187815;23;20420;-66
2022/12/10 06:19:07;;;;;;;39.27;35.13;;;1.90;99.90;;;;;;6187813;23;20412;-66
2022/12/10 06:21:34;;;;;;;35.37;31.57;;;1.90;99.90;;;;;;6187324;23;20490;-65
2022/12/10 06:24:03;;;;;;;34.93;30.83;;;2.00;99.90;;;;;;6187403;23;20447;-66
2022/12/10 06:26:30;;;;;;;38.33;32.93;;;1.90;99.90;;;;;;6187485;23;20412;-66
2022/12/10 06:28:57;;;;;;;36.63;32.20;;;1.90;99.90;;;;;;6187128;23;20419;-66
2022/12/10 06:31:24;;;;;;;38.20;32.37;;;1.90;99.90;;;;;;6186926;23;20988;-65
2022/12/10 06:33:52;;;;;;;36.97;33.17;;;1.90;99.90;;;;;;6186923;23;20998;-66
2022/12/10 06:36:19;;;;;;;37.27;31.97;;;2.00;99.90;;;;;;6187429;23;20459;-66
2022/12/10 06:38:46;;;;;;;34.47;30.87;;;1.90;99.90;;;;;;6187513;23;20785;-66
2022/12/10 06:41:16;;;;;;;36.37;32.43;;;2.00;99.90;;;;;;6187484;23;20429;-65
2022/12/10 06:43:43;;;;;;;36.37;32.37;;;1.90;99.90;;;;;;6186930;23;20924;-66
2022/12/10 06:46:11;;;;;;;35.13;31.37;;;1.90;99.90;;;;;;6187179;23;20419;-66
2022/12/10 06:48:38;;;;;;;37.77;32.10;;;1.90;99.90;;;;;;6187550;23;20417;-66
2022/12/10 06:51:06;;;;;;;35.53;31.83;;;1.90;99.90;;;;;;6186968;23;20471;-66
2022/12/10 06:53:34;;;;;;;36.47;30.93;;;1.90;99.90;;;;;;6187724;23;20436;-66
2022/12/10 06:56:02;;;;;;;35.17;31.57;;;1.90;99.90;;;;;;6187092;23;20417;-65
2022/12/10 06:58:32;;;;;;;34.73;30.97;;;1.90;99.90;;;;;;6187021;23;20444;-65
2022/12/10 07:01:04;;;;;;;34.50;30.80;;;2.00;99.90;;;;;;6187122;23;20440;-66
2022/12/10 07:03:30;;;;;;;39.00;34.73;;;2.00;99.90;;;;;;6187062;23;20393;-66
2022/12/10 07:05:58;;;;;;;37.93;33.20;;;2.00;99.90;;;;;;6186836;23;20775;-66
2022/12/10 07:08:25;;;;;;;37.97;33.90;;;2.00;99.90;;;;;;6186847;23;20893;-65
2022/12/10 07:10:51;;;;;;;39.23;34.27;;;2.00;99.90;;;;;;6186896;23;20433;-66
2022/12/10 07:13:18;;;;;;;37.70;33.43;;;2.00;99.90;;;;;;6186858;23;20483;-65
2022/12/10 07:15:46;;;;;;;35.63;31.90;;;2.00;99.90;;;;;;6186522;23;20960;-66
2022/12/10 07:18:13;;;;;;;36.63;32.67;;;2.00;99.90;;;;;;6187318;23;20412;-65
2022/12/10 07:20:39;;;;;;;38.60;32.17;;;1.90;99.90;;;;;;6186633;23;20945;-66
2022/12/10 07:23:06;;;;;;;36.30;32.40;;;1.90;99.90;;;;;;6187286;23;20408;-65
2022/12/10 07:25:33;;;;;;;35.03;31.23;;;1.90;99.90;;;;;;6187004;23;20416;-66
2022/12/10 07:28:00;;;;;;;37.77;32.67;;;1.90;99.90;;;;;;6186463;23;20889;-69
2022/12/10 07:30:26;;;;;;;34.47;30.77;;;2.00;99.90;;;;;;6186731;23;20412;-66
2022/12/10 07:32:54;;;;;;;35.77;31.90;;;1.90;99.90;;;;;;6186548;23;20487;-66
2022/12/10 07:35:21;;;;;;;47.73;33.93;;;1.90;99.90;;;;;;6186815;23;20413;-66
2022/12/10 07:37:48;;;;;;;36.17;32.27;;;2.00;99.90;;;;;;6186860;23;20417;-66
2022/12/10 07:40:14;;;;;;;36.10;32.20;;;2.00;99.90;;;;;;6186435;23;20416;-66
2022/12/10 07:42:41;;;;;;;36.27;32.40;;;1.90;99.90;;;;;;6186534;23;20479;-66
2022/12/10 07:45:09;;;;;;;36.67;32.87;;;1.90;99.90;;;;;;6186586;23;20422;-66
2022/12/10 07:47:36;;;;;;;38.77;33.60;;;2.00;99.90;;;;;;6186668;23;20412;-66
2022/12/10 07:50:04;;;;;;;34.50;30.70;;;1.90;99.90;;;;;;6186583;23;20416;-66
2022/12/10 07:52:31;;;;;;;36.67;32.70;;;1.90;99.90;;;;;;6186397;23;20929;-66
2022/12/10 07:54:58;;;;;;;36.63;32.27;;;2.00;99.90;;;;;;6186520;23;20412;-66
2022/12/10 07:57:25;;;;;;;37.00;32.70;;;1.90;99.90;;;;;;6186151;23;20897;-66
2022/12/10 07:59:51;;;;;;;35.87;32.03;;;1.90;99.90;;;;;;6186738;23;20413;-66
2022/12/10 08:02:18;;;;;;;35.40;31.80;;;1.90;99.90;;;;;;6186290;23;20440;-66
2022/12/10 08:04:45;;;;;;;36.07;31.87;;;2.00;99.90;;;;;;6186689;23;20499;-66
2022/12/10 08:07:13;;;;;;;37.90;33.90;;;2.10;99.90;;;;;;6186545;23;20809;-66
2022/12/10 08:09:40;;;;;;;35.73;31.90;;;2.10;99.90;;;;;;6186702;23;20413;-66
2022/12/10 08:12:06;;;;;;;36.10;32.10;;;2.10;99.90;;;;;;6186463;23;20440;-66
2022/12/10 08:14:33;;;;;;;36.47;32.40;;;2.20;99.90;;;;;;6186065;23;20869;-67
2022/12/10 08:17:00;;;;;;;34.40;30.73;;;2.20;99.90;;;;;;6186609;23;20413;-67
2022/12/10 08:19:26;;;;;;;34.70;31.20;;;2.20;99.90;;;;;;6187161;23;20409;-68
2022/12/10 08:21:53;;;;;;;35.70;31.73;;;2.20;99.90;;;;;;6186976;23;20801;-67
2022/12/10 08:24:21;;;;;;;32.73;29.33;;;2.30;99.90;;;;;;6186619;23;20409;-68
2022/12/10 08:26:48;;;;;;;33.87;30.37;;;2.30;99.90;;;;;;6186689;23;20416;-68
2022/12/10 08:29:14;;;;;;;36.23;32.43;;;2.30;99.90;;;;;;6185717;23;20727;-67
2022/12/10 08:31:41;;;;;;;33.13;29.73;;;2.30;99.90;;;;;;6186296;23;20440;-70
2022/12/10 08:34:12;;;;;;;35.10;31.43;;;2.30;99.90;;;;;;6187752;23;20440;-68
2022/12/10 08:36:39;;;;;;;36.73;33.13;;;2.40;99.90;;;;;;6186645;23;20452;-68
2022/12/10 08:39:06;;;;;;;34.83;31.30;;;2.40;99.90;;;;;;6186507;23;20483;-68
2022/12/10 08:41:34;;;;;;;34.90;31.40;;;2.40;99.90;;;;;;6185854;23;20437;-66
2022/12/10 08:44:00;;;;;;;36.10;32.40;;;2.40;99.90;;;;;;6186414;23;20782;-68
2022/12/10 08:46:28;;;;;;;31.87;28.67;;;2.40;99.90;;;;;;6186885;23;20448;-68
2022/12/10 08:48:55;;;;;;;35.23;30.93;;;2.50;99.90;;;;;;6186328;23;20413;-68
2022/12/10 08:51:22;;;;;;;36.87;32.60;;;2.60;99.90;;;;;;6186097;23;20432;-68
2022/12/10 08:53:49;;;;;;;36.13;31.20;;;2.60;99.90;;;;;;6185938;23;20443;-68
2022/12/10 08:56:16;;;;;;;35.87;32.07;;;2.60;99.90;;;;;;6185646;23;20471;-68
2022/12/10 08:58:44;;;;;;;34.60;31.07;;;2.60;99.90;;;;;;6186169;23;20451;-68
2022/12/10 09:01:14;;;;;;;34.27;30.77;;;2.70;99.90;;;;;;6185680;23;20440;-63
2022/12/10 09:03:40;;;;;;;33.63;30.20;;;2.70;99.90;;;;;;6186644;23;20459;-63
2022/12/10 09:06:10;;;;;;;32.60;29.27;;;2.70;99.90;;;;;;6186056;23;20413;-63
2022/12/10 09:08:37;;;;;;;33.77;30.23;;;2.70;99.90;;;;;;6186357;23;20448;-62
2022/12/10 09:11:08;;;;;;;33.87;30.33;;;2.70;99.90;;;;;;6185880;23;20443;-63
2022/12/10 09:13:35;;;;;;;31.50;28.33;;;2.60;99.90;;;;;;6185808;23;20441;-62
2022/12/10 09:16:03;;;;;;;35.60;30.77;;;2.70;99.90;;;;;;6185474;23;20412;-62
2022/12/10 09:18:30;;;;;;;31.77;28.37;;;2.70;99.90;;;;;;6185889;23;20419;-62
2022/12/10 09:20:56;;;;;;;32.30;28.80;;;2.70;99.90;;;;;;6185775;23;20507;-68
2022/12/10 09:23:23;;;;;;;31.43;28.00;;;2.70;99.90;;;;;;6185870;23;20408;-62
2022/12/10 09:25:50;;;;;;;32.27;28.97;;;2.70;99.90;;;;;;6185847;23;20480;-63
2022/12/10 09:28:17;;;;;;;33.17;29.77;;;2.70;99.90;;;;;;6185971;23;20420;-62
2022/12/10 09:30:43;;;;;;;33.20;29.90;;;2.70;99.90;;;;;;6185838;23;20428;-63
2022/12/10 09:33:11;;;;;;;31.17;27.80;;;2.70;99.90;;;;;;6186022;23;20489;-63
2022/12/10 09:35:41;;;;;;;32.13;28.77;;;2.80;99.90;;;;;;6185850;23;20412;-63
2022/12/10 09:38:08;;;;;;;29.97;26.83;;;2.90;99.90;;;;;;6185861;23;20496;-62
2022/12/10 09:40:39;;;;;;;30.27;27.00;;;2.90;99.90;;;;;;6185573;23;20432;-63
2022/12/10 09:43:15;;;;;;;31.43;28.20;;;2.90;99.90;;;;;;6186726;23;20472;-62
2022/12/10 09:45:50;;;;;;;31.40;28.13;;;3.00;99.90;;;;;;6187538;23;20404;-62
2022/12/10 09:48:26;;;;;;;30.07;26.87;;;3.00;99.90;;;;;;6187413;23;20400;-62
2022/12/10 09:50:59;;;;;;;34.00;30.40;;;3.10;99.90;;;;;;6188034;23;20941;-62
2022/12/10 09:53:29;;;;;;;32.03;28.60;;;3.10;99.90;;;;;;6187837;23;20420;-62
2022/12/10 09:55:56;;;;;;;31.63;28.33;;;3.10;99.90;;;;;;6188025;23;20420;-62
2022/12/10 09:58:25;;;;;;;31.60;28.30;;;3.10;99.90;;;;;;6188045;23;20412;-62
2022/12/10 10:00:57;;;;;;;28.67;25.67;;;3.10;99.90;;;;;;6187600;23;20444;-62
2022/12/10 10:03:25;;;;;;;30.47;27.17;;;3.10;99.90;;;;;;6187805;23;20448;-62
2022/12/10 10:05:54;;;;;;;30.17;27.00;;;3.10;99.90;;;;;;6187768;23;20417;-62
2022/12/10 10:08:28;;;;;;;29.00;26.10;;;3.10;99.90;;;;;;6187409;23;20471;-62
2022/12/10 10:10:54;;;;;;;31.60;28.47;;;3.10;99.90;;;;;;6187518;23;20433;-63
2022/12/10 10:13:30;;;;;;;29.67;26.60;;;3.00;99.90;;;;;;6186756;23;20433;-63
2022/12/10 10:16:19;;;;;;;31.57;28.17;;;3.10;99.90;;;;;;6188494;23;20397;-62
2022/12/10 10:18:52;;;;;;;30.70;27.50;;;3.20;99.90;;;;;;6188824;23;20401;-62
2022/12/10 10:21:23;;;;;;;28.23;25.43;;;3.30;99.90;;;;;;6187934;23;20487;-63
2022/12/10 10:23:50;;;;;;;31.87;27.50;;;3.40;99.90;;;;;;6188390;23;20400;-63
2022/12/10 10:26:16;;;;;;;31.93;28.70;;;3.40;99.90;;;;;;6187662;23;20479;-64
2022/12/10 10:28:45;;;;;;;30.00;26.90;;;3.40;99.90;;;;;;6187217;23;20499;-64
2022/12/10 10:31:20;;;;;;;31.57;26.30;;;3.70;99.90;;;;;;6187057;23;20433;-65
2022/12/10 10:33:56;;;;;;;28.53;25.50;;;4.00;99.90;;;;;;6187071;23;20430;-63
2022/12/10 10:36:28;;;;;;;28.93;25.87;;;4.00;99.90;;;;;;6187198;23;20746;-62
2022/12/10 10:38:55;;;;;;;27.57;24.77;;;4.10;99.90;;;;;;6186786;23;20889;-63
2022/12/10 10:41:24;;;;;;;28.17;25.23;;;4.10;99.90;;;;;;6187813;23;20432;-63
2022/12/10 10:44:00;;;;;;;27.53;24.60;;;4.20;99.90;;;;;;6187003;23;20920;-62
2022/12/10 10:46:27;;;;;;;28.60;25.60;;;4.20;99.90;;;;;;6187037;23;20475;-63
2022/12/10 10:49:14;;;;;;;29.17;26.30;;;4.40;99.90;;;;;;6187067;23;20408;-62
2022/12/10 10:51:43;;;;;;;26.80;24.20;;;4.50;99.90;;;;;;6187548;23;20432;-63
2022/12/10 10:54:10;;;;;;;28.13;25.33;;;4.40;99.90;;;;;;6186494;23;20460;-62
2022/12/10 10:56:42;;;;;;;27.77;24.93;;;4.30;99.90;;;;;;6186893;23;20463;-63
2022/12/10 10:59:30;;;;;;;28.63;25.70;;;4.30;99.90;;;;;;6186987;23;20397;-63
2022/12/10 11:02:01;;;;;;;28.07;25.27;;;4.30;99.90;;;;;;6186478;23;20508;-62
2022/12/10 11:04:36;;;;;;;28.20;25.50;;;4.20;99.90;;;;;;6186901;23;20397;-63
2022/12/10 11:07:06;;;;;;;29.80;26.63;;;4.00;99.90;;;;;;6186726;23;20397;-61
2022/12/10 11:09:36;;;;;;;29.27;25.73;;;3.80;99.90;;;;;;6186828;23;20420;-63
2022/12/10 11:12:06;;;;;;;28.90;26.00;;;3.80;99.90;;;;;;6186780;23;20502;-64
2022/12/10 11:14:35;;;;;;;28.17;25.33;;;3.70;99.90;;;;;;6186480;23;20874;-63
2022/12/10 11:17:18;;;;;;;31.77;25.90;;;3.80;99.90;;;;;;6186679;23;20412;-63
2022/12/10 11:19:59;;;;;;;27.80;24.70;;;3.80;99.90;;;;;;6186405;23;20870;-62
2022/12/10 11:22:29;;;;;;;29.43;26.43;;;3.70;99.90;;;;;;6186247;23;20941;-62
2022/12/10 11:24:57;;;;;;;27.33;24.50;;;3.70;99.90;;;;;;6186295;23;20893;-62
2022/12/10 11:27:36;;;;;;;28.20;25.20;;;3.70;99.90;;;;;;6186254;23;20898;-62
2022/12/10 11:30:07;;;;;;;28.93;25.83;;;3.60;99.90;;;;;;6186572;23;20397;-62
2022/12/10 11:32:50;;;;;;;25.73;23.03;;;3.60;99.90;;;;;;6186505;23;20471;-62
2022/12/10 11:35:24;;;;;;;28.23;25.33;;;4.00;99.90;;;;;;6186479;23;20421;-62
2022/12/10 11:38:00;;;;;;;27.30;24.50;;;4.00;99.90;;;;;;6186579;23;20452;-62
2022/12/10 11:40:34;;;;;;;27.60;24.90;;;4.00;99.90;;;;;;6186610;23;20763;-63
2022/12/10 11:43:24;;;;;;;27.30;24.60;;;4.10;99.90;;;;;;6186744;23;20452;-64
2022/12/10 11:46:02;;;;;;;28.40;25.43;;;4.30;99.90;;;;;;6186490;23;20409;-66
2022/12/10 11:48:42;;;;;;;28.73;25.70;;;4.30;99.90;;;;;;6186645;23;20448;-65
2022/12/10 11:51:20;;;;;;;26.47;23.87;;;4.40;99.90;;;;;;6186500;23;20432;-65
2022/12/10 11:54:10;;;;;;;26.83;24.13;;;4.50;99.90;;;;;;6186145;23;20420;-65
2022/12/10 11:56:41;;;;;;;26.20;23.60;;;4.40;99.90;;;;;;6186441;23;20763;-65
2022/12/10 11:59:20;;;;;;;27.60;24.70;;;4.40;99.90;;;;;;6186475;23;20455;-65
2022/12/10 12:02:03;;;;;;;25.33;22.80;;;4.60;99.90;;;;;;6186081;23;20440;-64
2022/12/10 12:04:42;;;;;;;26.73;24.00;;;4.40;99.90;;;;;;6186460;23;20393;-64
2022/12/10 12:07:31;;;;;;;32.73;27.37;;;4.30;99.90;;;;;;6186615;23;20397;-65
2022/12/10 12:10:49;;;;;;;37.53;26.50;;;4.20;99.90;;;;;;6197147;23;20412;-64
2022/12/10 12:13:20;;;;;;;25.57;22.97;;;4.00;99.90;;;;;;6115236;23;20417;-64
2022/12/10 12:15:52;;;;;;;26.63;24.03;;;4.00;99.90;;;;;;6186592;23;20871;-64
2022/12/10 12:18:23;;;;;;;26.83;24.03;;;3.90;99.90;;;;;;6186707;23;20425;-64
2022/12/10 12:20:54;;;;;;;25.03;22.53;;;3.90;99.90;;;;;;6186218;23;20432;-65
2022/12/10 12:23:27;;;;;;;24.63;22.07;;;3.90;99.90;;;;;;6186432;23;20397;-65
2022/12/10 12:25:57;;;;;;;25.03;22.50;;;4.00;99.90;;;;;;6185927;23;20865;-65
2022/12/10 12:28:31;;;;;;;25.30;22.60;;;4.10;99.90;;;;;;6186040;23;20873;-65
2022/12/10 12:31:04;;;;;;;23.47;21.17;;;4.10;99.90;;;;;;6186280;23;20432;-66
2022/12/10 12:33:40;;;;;;;26.27;23.17;;;4.20;99.90;;;;;;6186490;23;20405;-65
2022/12/10 12:36:13;;;;;;;25.40;22.87;;;4.20;99.90;;;;;;6186405;23;20404;-64
2022/12/10 12:38:49;;;;;;;25.63;23.03;;;4.10;99.90;;;;;;6186359;23;20404;-66
2022/12/10 12:41:22;;;;;;;24.67;22.17;;;4.10;99.90;;;;;;6186910;23;20436;-63
2022/12/10 12:43:52;;;;;;;26.73;23.93;;;4.10;99.90;;;;;;6185884;23;20400;-65
2022/12/10 12:46:24;;;;;;;25.13;22.63;;;4.00;99.90;;;;;;6186402;23;20419;-65
2022/12/10 12:48:57;;;;;;;26.87;24.03;;;4.10;99.90;;;;;;6186401;23;20401;-65
2022/12/10 12:51:30;;;;;;;25.80;23.20;;;4.10;99.90;;;;;;6186099;23;20440;-65
2022/12/10 12:53:58;;;;;;;28.70;25.07;;;4.20;99.90;;;;;;6185771;23;20479;-65
2022/12/10 12:56:50;;;;;;;27.70;24.77;;;4.20;99.90;;;;;;6185974;23;20413;-65
2022/12/10 12:59:31;;;;;;;28.73;25.83;;;4.20;99.90;;;;;;6186394;23;20401;-65
2022/12/10 13:02:08;;;;;;;27.57;24.87;;;4.20;99.90;;;;;;6185558;23;20441;-65
2022/12/10 13:04:35;;;;;;;28.90;25.43;;;4.10;99.90;;;;;;6186151;23;20404;-65
2022/12/10 13:07:33;;;;;;;28.10;25.03;;;4.10;99.90;;;;;;6186242;23;20463;-66
2022/12/10 13:10:25;;;;;;;27.73;25.00;;;4.00;99.90;;;;;;6187150;23;20392;-65
2022/12/10 13:13:07;;;;;;;26.20;23.60;;;3.80;99.90;;;;;;6186116;23;20432;-65
2022/12/10 13:15:36;;;;;;;25.47;22.83;;;3.90;99.90;;;;;;6186135;23;20519;-65
2022/12/10 13:18:20;;;;;;;25.23;22.63;;;3.90;99.90;;;;;;6187463;23;20413;-66
2022/12/10 13:20:49;;;;;;;28.10;23.13;;;3.90;99.90;;;;;;6187790;23;20439;-65
2022/12/10 13:23:33;;;;;;;26.50;23.90;;;4.00;99.90;;;;;;6187858;23;20413;-65
2022/12/10 13:26:03;;;;;;;24.33;22.03;;;3.90;99.90;;;;;;6188869;23;20396;-65
2022/12/10 13:28:49;;;;;;;24.73;22.03;;;3.90;99.90;;;;;;6187968;23;20789;-65
2022/12/10 13:31:36;;;;;;;23.83;21.47;;;3.80;99.90;;;;;;6187821;23;20443;-65
2022/12/10 13:34:22;;;;;;;29.67;22.23;;;3.80;99.90;;;;;;6187479;23;20925;-65
2022/12/10 13:37:32;;;;;;;24.80;22.23;;;3.70;99.90;;;;;;6187335;23;20866;-65
2022/12/10 13:40:15;;;;;;;25.03;22.63;;;3.70;99.90;;;;;;6157841;23;20420;-65
2022/12/10 13:45:34;;;;;;;23.07;20.83;;;3.70;99.90;;;;;;6187711;23;20431;-65
2022/12/10 13:48:27;;;;;;;21.67;19.57;;;3.60;99.90;;;;;;6187647;23;20397;-65
2022/12/10 13:51:05;;;;;;;23.03;20.73;;;3.60;99.90;;;;;;6187893;23;20460;-65
2022/12/10 13:53:43;;;;;;;22.53;20.30;;;3.60;99.90;;;;;;6187724;23;20393;-65
2022/12/10 13:56:23;;;;;;;24.37;21.70;;;3.50;99.90;;;;;;6187574;23;20393;-65
2022/12/10 13:58:59;;;;;;;23.50;21.10;;;3.60;99.90;;;;;;6187655;23;20393;-66
2022/12/10 14:01:38;;;;;;;23.70;21.30;;;3.60;99.90;;;;;;6187321;23;20489;-65
2022/12/10 14:04:31;;;;;;;23.00;20.70;;;3.60;99.90;;;;;;6187272;23;20393;-65
2022/12/10 14:06:57;;;;;;;25.03;22.53;;;3.50;99.90;;;;;;6187084;23;20862;-65
2022/12/10 14:09:28;;;;;;;23.80;21.37;;;3.50;99.90;;;;;;6187608;23;20415;-66
2022/12/10 14:12:00;;;;;;;24.23;21.83;;;3.40;99.90;;;;;;6187546;23;20436;-65
2022/12/10 14:14:32;;;;;;;24.17;21.70;;;3.40;99.90;;;;;;6187308;23;20428;-65
2022/12/10 14:17:01;;;;;;;27.37;24.67;;;3.40;99.90;;;;;;6187666;23;20397;-65
2022/12/10 14:19:29;;;;;;;27.33;24.43;;;3.40;99.90;;;;;;6187530;23;20463;-66
2022/12/10 14:21:56;;;;;;;28.60;25.60;;;3.40;99.90;;;;;;6188093;23;20487;-66
2022/12/10 14:24:31;;;;;;;28.20;25.30;;;3.30;99.90;;;;;;6187348;23;20413;-65
2022/12/10 14:27:00;;;;;;;27.80;24.90;;;3.30;99.90;;;;;;6187041;23;20857;-65
2022/12/10 14:29:28;;;;;;;27.00;23.60;;;3.30;99.90;;;;;;6186237;23;20893;-65
2022/12/10 14:31:56;;;;;;;30.37;27.10;;;3.30;99.90;;;;;;6187061;23;20995;-65
2022/12/10 14:34:26;;;;;;;30.10;27.00;;;3.20;99.90;;;;;;6188316;23;20780;-65
2022/12/10 14:36:56;;;;;;;29.00;25.97;;;3.10;99.90;;;;;;6187441;23;20504;-65
2022/12/10 14:39:27;;;;;;;30.17;27.03;;;3.20;99.90;;;;;;6187536;23;20413;-65
2022/12/10 14:41:57;;;;;;;27.17;24.27;;;3.20;99.90;;;;;;6187205;23;20515;-65
2022/12/10 14:44:25;;;;;;;29.70;26.60;;;3.20;99.90;;;;;;6187347;23;20393;-65
2022/12/10 14:47:02;;;;;;;31.20;26.90;;;3.20;99.90;;;;;;6187546;23;20416;-65
2022/12/10 14:49:29;;;;;;;28.03;25.13;;;3.20;99.90;;;;;;6187610;23;20452;-65
2022/12/10 14:51:57;;;;;;;28.43;25.63;;;3.10;99.90;;;;;;6187397;23;20433;-65
2022/12/10 14:54:31;;;;;;;27.67;23.90;;;3.10;99.90;;;;;;6187037;23;20471;-65
2022/12/10 14:56:59;;;;;;;26.83;24.03;;;3.00;99.90;;;;;;6187130;23;20488;-65
2022/12/10 14:59:31;;;;;;;25.20;22.67;;;2.90;99.90;;;;;;6187103;23;20412;-65
2022/12/10 15:02:01;;;;;;;24.90;22.30;;;2.80;99.90;;;;;;6186517;23;20447;-65
2022/12/10 15:04:40;;;;;;;26.60;23.80;;;2.80;99.90;;;;;;6187177;23;20424;-65
2022/12/10 15:07:12;;;;;;;23.93;21.53;;;2.80;99.90;;;;;;6187323;23;20400;-65
2022/12/10 15:09:39;;;;;;;21.67;19.40;;;2.70;99.90;;;;;;6187456;23;20479;-64
2022/12/10 15:12:06;;;;;;;22.67;20.47;;;2.70;99.90;;;;;;6186700;23;20443;-62
2022/12/10 15:14:33;;;;;;;21.50;19.40;;;2.70;99.90;;;;;;6186337;23;20953;-64
2022/12/10 15:17:01;;;;;;;22.97;20.60;;;2.70;99.90;;;;;;6186469;23;20412;-63
2022/12/10 15:19:33;;;;;;;20.33;18.33;;;2.60;99.90;;;;;;6186698;23;20416;-63
2022/12/10 15:22:02;;;;;;;20.47;18.23;;;2.60;99.90;;;;;;6186987;23;20439;-63
2022/12/10 15:24:36;;;;;;;20.27;18.03;;;2.50;99.90;;;;;;6186716;23;20765;-64
2022/12/10 15:27:16;;;;;;;18.10;15.53;;;2.60;99.90;;;;;;6186759;23;20401;-63
2022/12/10 15:29:43;;;;;;;18.50;16.60;;;2.60;99.90;;;;;;6186444;23;20921;-63
2022/12/10 15:32:15;;;;;;;18.83;17.03;;;2.60;99.90;;;;;;6186869;23;20433;-63
2022/12/10 15:34:45;;;;;;;20.23;18.13;;;2.70;99.90;;;;;;6187019;23;20460;-63
2022/12/10 15:37:22;;;;;;;19.83;17.77;;;2.60;99.90;;;;;;6186838;23;20524;-64
2022/12/10 15:39:52;;;;;;;20.00;18.00;;;2.60;99.90;;;;;;6186661;23;20429;-63
2022/12/10 15:42:40;;;;;;;23.10;20.70;;;2.60;99.90;;;;;;6186627;23;20459;-63
2022/12/10 15:45:19;;;;;;;25.47;22.70;;;2.60;99.90;;;;;;6186453;23;20512;-63
2022/12/10 15:47:47;;;;;;;26.50;23.70;;;2.60;99.90;;;;;;6186548;23;20462;-63
2022/12/10 15:50:15;;;;;;;25.03;22.43;;;2.60;99.90;;;;;;6186435;23;20470;-63
2022/12/10 15:52:44;;;;;;;27.37;24.50;;;2.60;99.90;;;;;;6186473;23;20482;-63
2022/12/10 15:55:12;;;;;;;27.23;24.33;;;2.60;99.90;;;;;;6185994;23;21036;-63
2022/12/10 15:57:44;;;;;;;28.60;25.70;;;2.60;99.90;;;;;;6185950;23;20412;-63
2022/12/10 16:00:18;;;;;;;29.10;26.00;;;2.60;99.90;;;;;;6186484;23;20447;-63
2022/12/10 16:02:49;;;;;;;27.40;24.50;;;2.50;99.90;;;;;;6186389;23;20388;-63
2022/12/10 16:05:19;;;;;;;27.53;24.67;;;2.50;99.90;;;;;;6186332;23;20389;-63
2022/12/10 16:07:48;;;;;;;27.97;24.10;;;2.40;99.90;;;;;;6187186;23;20411;-63
2022/12/10 16:10:17;;;;;;;27.30;24.40;;;2.40;99.90;;;;;;6186364;23;20478;-63
2022/12/10 16:12:46;;;;;;;30.00;26.63;;;2.40;99.90;;;;;;6186240;23;20475;-63
2022/12/10 16:15:18;;;;;;;28.17;25.23;;;2.30;99.90;;;;;;6186122;23;20436;-63
2022/12/10 16:17:45;;;;;;;31.10;27.37;;;2.30;99.90;;;;;;6186321;23;20397;-63
2022/12/10 16:20:22;;;;;;;30.03;26.20;;;2.30;99.90;;;;;;6186253;23;20412;-63
2022/12/10 16:22:50;;;;;;;28.83;25.73;;;2.30;99.90;;;;;;6186190;23;20401;-63
2022/12/10 16:25:17;;;;;;;28.57;25.50;;;2.30;99.90;;;;;;6185942;23;20409;-63
2022/12/10 16:27:44;;;;;;;28.13;25.23;;;2.30;99.90;;;;;;6186362;23;20413;-63
2022/12/10 16:30:22;;;;;;;29.13;26.13;;;2.30;99.90;;;;;;6186456;23;20783;-65
2022/12/10 16:32:48;;;;;;;29.03;25.80;;;2.20;99.90;;;;;;6186249;23;20397;-65
2022/12/10 16:35:15;;;;;;;29.20;26.13;;;2.20;99.90;;;;;;6185979;23;20440;-65
2022/12/10 16:37:46;;;;;;;29.23;25.63;;;2.20;99.90;;;;;;6186087;23;20464;-65
2022/12/10 16:40:13;;;;;;;28.97;25.87;;;2.20;99.90;;;;;;6186138;23;20397;-65
2022/12/10 16:42:40;;;;;;;29.80;26.70;;;2.20;99.90;;;;;;6185803;23;20436;-65
2022/12/10 16:45:15;;;;;;;29.63;26.53;;;2.20;99.90;;;;;;6185726;23;20927;-65
2022/12/10 16:47:42;;;;;;;30.30;26.80;;;2.20;99.90;;;;;;6185957;23;20440;-65
2022/12/10 16:50:09;;;;;;;27.57;24.77;;;2.20;99.90;;;;;;6195524;23;20417;-65
2022/12/10 16:52:36;;;;;;;27.73;24.80;;;2.10;99.90;;;;;;6187155;23;20436;-65
2022/12/10 16:55:05;;;;;;;28.43;25.33;;;2.20;99.90;;;;;;6188142;23;20433;-65
2022/12/10 16:57:32;;;;;;;28.53;25.53;;;2.20;99.90;;;;;;6188218;23;20412;-64
2022/12/10 16:59:59;;;;;;;28.37;25.27;;;2.20;99.90;;;;;;6188245;23;20416;-64
2022/12/10 17:02:25;;;;;;;27.70;24.80;;;2.20;99.90;;;;;;6187810;23;20451;-64
2022/12/10 17:04:52;;;;;;;27.57;24.70;;;2.20;99.90;;;;;;6188098;23;20413;-65
2022/12/10 17:07:19;;;;;;;27.30;24.50;;;2.20;99.90;;;;;;6188328;23;20412;-65
2022/12/10 17:09:46;;;;;;;27.30;24.60;;;2.10;99.90;;;;;;6188010;23;20415;-65
2022/12/10 17:12:14;;;;;;;28.47;25.37;;;2.10;99.90;;;;;;6187954;23;20432;-64
2022/12/10 17:14:45;;;;;;;29.27;25.57;;;2.00;99.90;;;;;;6187964;23;20726;-64
2022/12/10 17:17:13;;;;;;;28.70;25.77;;;2.00;99.90;;;;;;6188048;23;20399;-65
2022/12/10 17:19:40;;;;;;;28.10;25.10;;;2.00;99.90;;;;;;6188589;23;20447;-64
2022/12/10 17:22:07;;;;;;;28.83;25.83;;;2.00;99.90;;;;;;6187717;23;20551;-64
2022/12/10 17:24:34;;;;;;;29.50;26.40;;;2.10;99.90;;;;;;6187857;23;20467;-63
2022/12/10 17:27:04;;;;;;;30.30;27.17;;;2.00;99.90;;;;;;6187771;23;20408;-64
2022/12/10 17:29:35;;;;;;;28.10;25.23;;;2.00;99.90;;;;;;6187909;23;20397;-64
2022/12/10 17:32:02;;;;;;;29.60;25.43;;;2.00;99.90;;;;;;6187541;23;20490;-63
2022/12/10 17:34:29;;;;;;;29.03;26.03;;;2.00;99.90;;;;;;6187569;23;20789;-64
2022/12/10 17:36:56;;;;;;;28.20;25.23;;;2.00;99.90;;;;;;6187369;23;20527;-63
2022/12/10 17:39:24;;;;;;;28.93;25.87;;;2.00;99.90;;;;;;6187229;23;20960;-64
2022/12/10 17:41:51;;;;;;;29.10;25.73;;;1.90;99.90;;;;;;6187984;23;20460;-64
2022/12/10 17:44:18;;;;;;;31.03;26.67;;;1.90;99.90;;;;;;6187891;23;20412;-63
2022/12/10 17:46:46;;;;;;;29.70;26.50;;;1.80;99.90;;;;;;6187883;23;20467;-64
2022/12/10 17:49:15;;;;;;;29.73;26.33;;;1.80;99.90;;;;;;6187327;23;20462;-63
2022/12/10 17:51:41;;;;;;;29.90;26.70;;;1.80;99.90;;;;;;6188023;23;20444;-64
2022/12/10 17:54:08;;;;;;;31.97;28.40;;;1.80;99.90;;;;;;6188292;23;20504;-65
2022/12/10 17:56:35;;;;;;;32.50;27.83;;;1.80;99.90;;;;;;6188343;23;20443;-64
2022/12/10 17:59:02;;;;;;;31.80;28.53;;;1.70;99.90;;;;;;6188340;23;20749;-65